Terminal Aerodrome Forecast
Issued by NWS Portland, ME

Home | Current Version | Previous Version | Text Only | Print | Product List | Glossary On
Versions: 1 2 3 4 5 6 7 8 9 10 11 12 13 14 15 16 17 18 19 20
000
FTUS41 KGYX 021122
TAFCON
TAF
KCON 021122Z 0212/0312 00000KT P6SM SCT250
      TEMPO 0212/0213 BKN002
     FM021400 26007KT P6SM SCT250
     FM030000 00000KT P6SM SCT120 BKN250=

USA.gov is the U.S. government's official web portal to all federal, state and local government web resources and services.